createdAt,value
2022-07-31T00:00:12.185Z,17.36
2022-07-31T00:04:12.025Z,17.44
2022-07-31T00:08:09.217Z,17.37
2022-07-31T00:12:07.034Z,17.12
2022-07-31T00:16:04.701Z,17.08
2022-07-31T00:20:02.223Z,17.02
2022-07-31T00:23:59.370Z,17.08
2022-07-31T00:27:56.377Z,17.04
2022-07-31T00:31:53.397Z,16.87
2022-07-31T00:35:50.402Z,16.69
2022-07-31T00:39:47.567Z,16.73
2022-07-31T00:43:44.639Z,16.82
2022-07-31T00:47:42.711Z,16.73
2022-07-31T00:51:40.317Z,16.79
2022-07-31T00:55:41.808Z,16.22
2022-07-31T00:59:50.874Z,16.17
2022-07-31T01:03:48.156Z,16.48
2022-07-31T01:07:49.003Z,16.46
2022-07-31T01:12:07.421Z,16.45
2022-07-31T01:16:07.574Z,16.44
2022-07-31T01:20:06.223Z,16.32
2022-07-31T01:24:40.089Z,16.07
2022-07-31T01:29:18.979Z,15.89
2022-07-31T01:33:25.429Z,15.85
2022-07-31T01:37:34.633Z,15.75
2022-07-31T01:41:40.565Z,15.77
2022-07-31T01:45:42.983Z,15.89
2022-07-31T01:49:42.960Z,15.79
2022-07-31T01:53:43.459Z,15.77
2022-07-31T01:57:43.093Z,15.87
2022-07-31T02:01:42.164Z,15.34
2022-07-31T02:05:42.812Z,15.53
2022-07-31T02:09:53.701Z,15.53
2022-07-31T02:14:02.318Z,15.66
2022-07-31T02:18:03.308Z,15.71
2022-07-31T02:22:03.436Z,15.31
2022-07-31T02:26:03.707Z,15.27
2022-07-31T02:30:04.525Z,15.47
2022-07-31T02:34:01.916Z,15.37
2022-07-31T02:38:00.957Z,15.32
2022-07-31T02:42:01.876Z,15.19
2022-07-31T02:46:00.642Z,15.44
2022-07-31T02:49:58.769Z,15.28
2022-07-31T02:53:55.963Z,15.42
2022-07-31T02:57:55.743Z,15.36
2022-07-31T03:01:52.872Z,15.32
2022-07-31T03:05:50.019Z,15.21
2022-07-31T03:09:48.103Z,15.30
2022-07-31T03:14:13.559Z,15.24
2022-07-31T03:18:14.929Z,15.28
2022-07-31T03:22:15.446Z,15.27
2022-07-31T03:26:13.444Z,15.25
2022-07-31T03:30:25.316Z,14.93
2022-07-31T03:34:28.183Z,15.13
2022-07-31T03:38:40.785Z,15.09
2022-07-31T03:42:44.778Z,15.06
2022-07-31T03:46:42.544Z,15.08
2022-07-31T03:50:41.976Z,15.13
2022-07-31T03:54:39.225Z,15.01
2022-07-31T03:58:51.518Z,15.25
2022-07-31T04:02:50.112Z,15.25
2022-07-31T04:07:10.997Z,15.32
2022-07-31T04:11:08.171Z,15.15
2022-07-31T04:15:09.299Z,15.26
2022-07-31T04:19:06.566Z,15.32
2022-07-31T04:23:04.149Z,15.32
2022-07-31T04:27:24.542Z,15.30
2022-07-31T04:31:21.545Z,15.19
2022-07-31T04:35:19.063Z,15.35
2022-07-31T04:39:16.213Z,15.41
2022-07-31T04:43:13.317Z,15.48
2022-07-31T04:47:10.362Z,15.57
2022-07-31T04:51:24.126Z,15.85
2022-07-31T04:55:21.612Z,15.64
2022-07-31T04:59:22.428Z,15.88
2022-07-31T05:03:20.215Z,16.24
2022-07-31T05:07:17.234Z,16.52
2022-07-31T05:11:23.896Z,16.74
2022-07-31T05:15:21.068Z,17.10
2022-07-31T05:19:18.421Z,17.27
2022-07-31T05:23:33.992Z,17.00
2022-07-31T05:27:39.136Z,17.12
2022-07-31T05:31:38.529Z,17.38
2022-07-31T05:35:57.375Z,17.94
2022-07-31T05:39:54.962Z,18.04
2022-07-31T05:44:12.280Z,18.37
2022-07-31T05:48:18.804Z,18.55
2022-07-31T05:52:18.538Z,18.83
2022-07-31T05:56:22.386Z,19.24
2022-07-31T06:00:21.842Z,19.54
2022-07-31T06:04:19.974Z,19.79
2022-07-31T06:08:18.226Z,19.98
2022-07-31T06:12:18.368Z,20.22
2022-07-31T06:16:15.754Z,20.31
2022-07-31T06:20:14.559Z,20.45
2022-07-31T06:24:11.718Z,20.45
2022-07-31T06:28:13.692Z,20.81
2022-07-31T06:32:15.795Z,20.99
2022-07-31T06:36:13.041Z,21.16
2022-07-31T06:40:15.880Z,21.55
2022-07-31T06:44:34.619Z,21.72
2022-07-31T06:48:49.742Z,21.43
2022-07-31T06:52:51.509Z,21.64
2022-07-31T06:56:49.397Z,21.71
2022-07-31T07:00:46.455Z,22.02
2022-07-31T07:04:56.472Z,22.07
2022-07-31T07:09:00.842Z,22.51
2022-07-31T07:12:57.872Z,22.94
2022-07-31T07:16:55.121Z,23.48
2022-07-31T07:20:53.091Z,23.45
2022-07-31T07:24:50.313Z,23.40
2022-07-31T07:28:51.712Z,23.63
2022-07-31T07:32:49.200Z,23.89
2022-07-31T07:36:47.131Z,24.28
2022-07-31T07:40:57.606Z,24.70
2022-07-31T07:44:54.641Z,25.03
2022-07-31T07:48:53.044Z,25.42
2022-07-31T07:53:04.559Z,25.88
2022-07-31T07:57:22.468Z,26.02
2022-07-31T08:01:38.805Z,26.17
2022-07-31T08:05:49.831Z,26.24
2022-07-31T08:09:46.846Z,26.90
2022-07-31T08:14:05.381Z,28.68
2022-07-31T08:18:11.373Z,30.17
2022-07-31T08:22:09.184Z,30.75
2022-07-31T08:26:08.659Z,30.51
2022-07-31T08:30:06.609Z,30.18
2022-07-31T08:34:05.238Z,30.86
2022-07-31T08:38:05.008Z,31.46
2022-07-31T08:42:28.944Z,32.22
2022-07-31T08:46:27.426Z,32.73
2022-07-31T08:50:25.698Z,32.97
2022-07-31T08:54:26.331Z,32.51
2022-07-31T08:58:23.468Z,32.46
2022-07-31T09:02:22.249Z,32.08
2022-07-31T09:06:45.333Z,32.22
2022-07-31T09:10:47.740Z,32.05
2022-07-31T09:14:49.515Z,32.99
2022-07-31T09:19:51.152Z,33.82
2022-07-31T09:23:22.896Z,33.84
2022-07-31T09:27:28.296Z,33.54
2022-07-31T09:31:33.589Z,33.39
2022-07-31T09:35:53.567Z,31.80
2022-07-31T09:39:53.630Z,30.60
2022-07-31T09:44:11.001Z,30.87
2022-07-31T09:48:15.195Z,30.12
2022-07-31T09:52:21.329Z,30.35
2022-07-31T09:56:18.841Z,30.16
2022-07-31T10:00:17.393Z,30.37
2022-07-31T10:04:19.146Z,31.02
2022-07-31T10:08:18.110Z,31.42
2022-07-31T10:12:53.716Z,32.17
2022-07-31T10:16:58.549Z,32.39
2022-07-31T10:21:28.984Z,32.47
2022-07-31T10:25:41.320Z,33.04
2022-07-31T10:29:49.428Z,32.71
2022-07-31T10:33:47.782Z,32.95
2022-07-31T10:38:27.431Z,33.75
2022-07-31T10:43:13.868Z,33.64
2022-07-31T10:47:16.740Z,35.50
2022-07-31T10:51:32.570Z,35.55
2022-07-31T10:56:04.433Z,36.48
2022-07-31T11:00:22.937Z,37.21
2022-07-31T11:04:46.861Z,37.54
2022-07-31T11:08:51.562Z,35.70
2022-07-31T11:13:23.302Z,35.15
2022-07-31T11:18:21.122Z,36.97
2022-07-31T11:22:31.698Z,37.61
2022-07-31T11:26:33.113Z,36.47
2022-07-31T11:30:50.149Z,36.84
2022-07-31T11:34:50.495Z,35.20
2022-07-31T11:38:50.990Z,34.78
2022-07-31T11:42:55.904Z,35.15
2022-07-31T11:48:09.621Z,36.55
2022-07-31T11:51:23.837Z,36.58
2022-07-31T11:55:20.901Z,36.89
2022-07-31T11:59:46.393Z,36.17
2022-07-31T12:03:38.464Z,35.36
2022-07-31T12:07:37.496Z,36.00
2022-07-31T12:11:34.667Z,37.53
2022-07-31T12:15:31.760Z,37.10
2022-07-31T12:19:37.487Z,36.32
2022-07-31T12:23:52.098Z,37.09
2022-07-31T12:27:56.490Z,36.91
2022-07-31T12:31:54.639Z,37.01
2022-07-31T12:35:55.816Z,37.16
2022-07-31T12:40:00.003Z,35.80
2022-07-31T12:44:13.387Z,34.47
2022-07-31T12:48:11.787Z,35.23
2022-07-31T12:52:09.991Z,34.35
2022-07-31T12:56:12.411Z,35.03
2022-07-31T13:00:10.808Z,35.46
2022-07-31T13:04:18.223Z,36.11
2022-07-31T13:08:16.581Z,37.37
2022-07-31T13:12:13.637Z,37.18
2022-07-31T13:16:10.667Z,36.39
2022-07-31T13:20:08.348Z,36.53
2022-07-31T13:24:12.253Z,36.26
2022-07-31T13:28:09.406Z,35.66
2022-07-31T13:32:06.806Z,34.34
2022-07-31T13:36:05.859Z,34.20
2022-07-31T13:40:03.485Z,33.48
2022-07-31T13:44:01.630Z,35.01
2022-07-31T13:48:00.504Z,36.84
2022-07-31T13:52:00.530Z,36.15
2022-07-31T13:55:58.839Z,33.81
2022-07-31T13:59:55.813Z,33.23
2022-07-31T14:03:52.781Z,33.69
2022-07-31T14:07:51.790Z,33.92
2022-07-31T14:11:50.061Z,34.18
2022-07-31T14:15:48.160Z,34.23
2022-07-31T14:19:45.317Z,35.39
2022-07-31T14:23:42.747Z,37.27
2022-07-31T14:27:40.013Z,37.80
2022-07-31T14:31:37.037Z,38.61
2022-07-31T14:35:34.262Z,37.77
2022-07-31T14:39:31.677Z,36.75
2022-07-31T14:43:28.764Z,36.08
2022-07-31T14:47:26.378Z,35.26
2022-07-31T14:51:23.396Z,33.70
2022-07-31T14:55:21.066Z,32.92
2022-07-31T14:59:18.212Z,33.05
2022-07-31T15:03:15.309Z,32.73
2022-07-31T15:07:34.193Z,32.14
2022-07-31T15:11:58.276Z,31.60
2022-07-31T15:15:48.458Z,31.05
2022-07-31T15:19:45.470Z,30.57
2022-07-31T15:23:43.186Z,29.68
2022-07-31T15:27:40.177Z,29.40
2022-07-31T15:31:37.258Z,29.09
2022-07-31T15:35:34.294Z,28.76
2022-07-31T15:39:31.340Z,28.94
2022-07-31T15:43:28.522Z,28.93
2022-07-31T15:47:25.891Z,29.39
2022-07-31T15:51:23.911Z,29.64
2022-07-31T15:55:21.402Z,30.25
2022-07-31T15:59:18.822Z,30.55
2022-07-31T16:03:18.136Z,30.52
2022-07-31T16:08:30.273Z,30.63
2022-07-31T16:12:04.248Z,30.78
2022-07-31T16:15:49.529Z,30.35
2022-07-31T16:19:46.529Z,30.18
2022-07-31T16:23:43.879Z,29.88
2022-07-31T16:27:41.090Z,29.99
2022-07-31T16:31:38.395Z,29.85
2022-07-31T16:35:35.409Z,29.67
2022-07-31T16:39:32.485Z,29.27
2022-07-31T16:43:47.206Z,29.32
2022-07-31T16:47:51.358Z,29.22
2022-07-31T16:51:48.697Z,29.20
2022-07-31T16:55:53.117Z,29.22
2022-07-31T16:59:58.187Z,29.05
2022-07-31T17:04:00.508Z,28.84
2022-07-31T17:08:00.190Z,28.76
2022-07-31T17:11:57.601Z,28.56
2022-07-31T17:15:54.603Z,28.51
2022-07-31T17:19:55.131Z,28.66
2022-07-31T17:23:53.383Z,28.61
2022-07-31T17:27:53.453Z,28.47
2022-07-31T17:31:50.633Z,28.48
2022-07-31T17:35:47.651Z,28.37
2022-07-31T17:39:48.326Z,28.06
2022-07-31T17:43:50.118Z,28.03
2022-07-31T17:48:03.717Z,27.95
2022-07-31T17:52:01.104Z,27.83
2022-07-31T17:55:58.089Z,27.79
2022-07-31T17:59:57.573Z,27.52
2022-07-31T18:03:54.582Z,27.56
2022-07-31T18:07:52.050Z,27.51
2022-07-31T18:11:50.797Z,27.48
2022-07-31T18:15:47.780Z,27.23
2022-07-31T18:19:45.428Z,27.28
2022-07-31T18:23:47.178Z,27.17
2022-07-31T18:27:44.559Z,27.09
2022-07-31T18:31:41.586Z,27.04
2022-07-31T18:35:38.757Z,26.86
2022-07-31T18:39:48.839Z,26.79
2022-07-31T18:43:46.408Z,26.73
2022-07-31T18:47:43.431Z,26.53
2022-07-31T18:51:41.333Z,26.38
2022-07-31T18:55:38.351Z,26.29
2022-07-31T18:59:37.308Z,26.13
2022-07-31T19:03:34.810Z,25.92
2022-07-31T19:07:35.871Z,25.76
2022-07-31T19:11:33.371Z,25.68
2022-07-31T19:15:30.773Z,25.54
2022-07-31T19:19:29.051Z,25.36
2022-07-31T19:23:39.133Z,25.09
2022-07-31T19:27:48.583Z,24.94
2022-07-31T19:31:48.280Z,24.87
2022-07-31T19:35:55.317Z,24.88
2022-07-31T19:39:55.787Z,24.82
2022-07-31T19:43:53.105Z,24.78
2022-07-31T19:47:50.249Z,24.64
2022-07-31T19:51:47.368Z,24.64
2022-07-31T19:55:44.460Z,24.41
2022-07-31T19:59:43.207Z,24.51
2022-07-31T20:03:40.564Z,24.56
2022-07-31T20:07:40.863Z,24.51
2022-07-31T20:11:37.865Z,24.34
2022-07-31T20:15:52.442Z,24.35
2022-07-31T20:20:03.010Z,24.22
2022-07-31T20:24:07.642Z,24.16
2022-07-31T20:28:07.172Z,23.97
2022-07-31T20:32:06.836Z,23.93
2022-07-31T20:36:07.589Z,23.91
2022-07-31T20:40:06.964Z,23.94
2022-07-31T20:44:04.165Z,23.90
2022-07-31T20:48:01.183Z,23.78
2022-07-31T20:51:58.212Z,23.78
2022-07-31T20:55:56.225Z,23.64
2022-07-31T20:59:53.783Z,23.55
2022-07-31T21:03:50.823Z,23.50
2022-07-31T21:07:47.781Z,23.53
2022-07-31T21:11:44.801Z,23.57
2022-07-31T21:15:45.064Z,23.58
2022-07-31T21:19:42.432Z,23.45
2022-07-31T21:23:39.693Z,23.57
2022-07-31T21:27:38.936Z,23.42
2022-07-31T21:31:36.489Z,23.22
2022-07-31T21:35:47.126Z,23.52
2022-07-31T21:39:44.263Z,23.28
2022-07-31T21:43:59.143Z,23.31
2022-07-31T21:48:00.650Z,23.23
2022-07-31T21:51:57.947Z,23.15
2022-07-31T21:55:58.021Z,23.21
2022-07-31T21:59:54.978Z,23.08
2022-07-31T22:03:51.965Z,23.02
2022-07-31T22:07:51.605Z,23.07
2022-07-31T22:12:01.333Z,22.95
2022-07-31T22:16:01.007Z,23.11
2022-07-31T22:20:01.464Z,23.07
2022-07-31T22:23:58.715Z,23.05
2022-07-31T22:27:56.057Z,22.93
2022-07-31T22:31:53.785Z,22.91
2022-07-31T22:35:59.011Z,22.75
2022-07-31T22:40:00.044Z,22.52
2022-07-31T22:44:13.766Z,22.29
2022-07-31T22:48:15.046Z,21.84
2022-07-31T22:52:15.199Z,22.03
2022-07-31T22:56:12.207Z,21.78
2022-07-31T23:00:12.456Z,21.78
2022-07-31T23:04:09.454Z,21.72
2022-07-31T23:08:06.487Z,21.86
2022-07-31T23:12:06.575Z,21.42
2022-07-31T23:16:03.981Z,21.52
2022-07-31T23:20:00.978Z,21.69
2022-07-31T23:23:57.949Z,21.70
2022-07-31T23:27:54.927Z,21.62
2022-07-31T23:31:51.938Z,21.66
2022-07-31T23:35:48.936Z,21.67
2022-07-31T23:39:45.956Z,21.62
2022-07-31T23:43:55.511Z,21.52
2022-07-31T23:47:52.754Z,21.52
2022-07-31T23:51:49.761Z,21.38
2022-07-31T23:55:49.216Z,21.13
2022-07-31T23:59:46.252Z,21.00
